To NAV CANADA Home Page Login to a new session Search on AWWS site Feedback and Comments Disclaimer Vers la page française équivalente Tips FAQ What's new on the site To the Forecasts and Observations / NOTAM section To "File a Flight Plan" website Publications and other links Update of the User's profile FIC Telephone Numbers My Weather Data Folder Route Weather Data Regional Weather Data Local Weather Data To the Forecasts and Observations / NOTAM section
Request Generated 05/03/2015 at 12:50:55 UTC . Weather information available at that time is displayed.

METAR/TAF

EARLTON/EARLTON (TIMISKAMING REGIONAL)/ON    (show WxCam)

METAR CYXR 031200Z AUTO 15007KT 9SM CLR 09/05 A2991 RMK SLP131=
METAR CYXR 031100Z AUTO 15006KT 9SM CLR 07/04 A2990 RMK SLP131=
METAR CYXR 031000Z AUTO 14006KT 9SM CLR 06/04 A2990 RMK SLP129=

TAF CYXR 031138Z 0312/0324 15007KT P6SM FEW080
BECMG 0314/0316 20015G25KT
FM031900 22015G25KT P6SM BKN080
RMK FCST BASED ON AUTO OBS. NXT FCST BY 031800Z=
Your time UTC time
Weather data provided by Environment Canada and NAV CANADA